sensor_id;sensor_type;location;lat;lon;timestamp;P1;durP1;ratioP1;P2;durP2;ratioP2
16416;SDS011;8317;52.186;5.688;2023-02-04T00:02:09;23.27;;;4.55;;
16416;SDS011;8317;52.186;5.688;2023-02-04T00:04:36;27.58;;;3.72;;
16416;SDS011;8317;52.186;5.688;2023-02-04T00:07:03;17.75;;;3.63;;
16416;SDS011;8317;52.186;5.688;2023-02-04T00:09:30;27.67;;;4.38;;
16416;SDS011;8317;52.186;5.688;2023-02-04T00:11:57;25.65;;;4.38;;
16416;SDS011;8317;52.186;5.688;2023-02-04T00:14:24;22.98;;;4.68;;
16416;SDS011;8317;52.186;5.688;2023-02-04T00:16:52;29.00;;;4.40;;
16416;SDS011;8317;52.186;5.688;2023-02-04T00:19:19;22.92;;;4.57;;
16416;SDS011;8317;52.186;5.688;2023-02-04T00:21:47;19.50;;;3.95;;
16416;SDS011;8317;52.186;5.688;2023-02-04T00:24:14;30.27;;;4.95;;
16416;SDS011;8317;52.186;5.688;2023-02-04T00:26:41;20.10;;;4.00;;
16416;SDS011;8317;52.186;5.688;2023-02-04T00:29:08;22.42;;;4.40;;
16416;SDS011;8317;52.186;5.688;2023-02-04T00:31:34;16.02;;;3.80;;
16416;SDS011;8317;52.186;5.688;2023-02-04T00:34:03;18.10;;;4.22;;
16416;SDS011;8317;52.186;5.688;2023-02-04T00:36:29;28.85;;;4.80;;
16416;SDS011;8317;52.186;5.688;2023-02-04T00:38:56;19.25;;;3.90;;
16416;SDS011;8317;52.186;5.688;2023-02-04T00:41:23;20.95;;;4.93;;
16416;SDS011;8317;52.186;5.688;2023-02-04T00:43:50;25.85;;;4.22;;
16416;SDS011;8317;52.186;5.688;2023-02-04T00:46:17;22.20;;;4.35;;
16416;SDS011;8317;52.186;5.688;2023-02-04T00:48:44;15.65;;;3.90;;
16416;SDS011;8317;52.186;5.688;2023-02-04T00:51:12;24.20;;;4.20;;
16416;SDS011;8317;52.186;5.688;2023-02-04T00:53:39;26.45;;;4.50;;
16416;SDS011;8317;52.186;5.688;2023-02-04T00:56:06;24.38;;;4.68;;
16416;SDS011;8317;52.186;5.688;2023-02-04T00:58:33;14.88;;;3.53;;
16416;SDS011;8317;52.186;5.688;2023-02-04T01:01:00;21.83;;;4.20;;
16416;SDS011;8317;52.186;5.688;2023-02-04T01:03:27;20.63;;;4.35;;
16416;SDS011;8317;52.186;5.688;2023-02-04T01:05:54;13.98;;;3.80;;
16416;SDS011;8317;52.186;5.688;2023-02-04T01:08:22;24.95;;;4.43;;
16416;SDS011;8317;52.186;5.688;2023-02-04T01:10:49;24.52;;;4.40;;
16416;SDS011;8317;52.186;5.688;2023-02-04T01:13:15;19.02;;;4.40;;
16416;SDS011;8317;52.186;5.688;2023-02-04T01:15:42;18.30;;;3.88;;
16416;SDS011;8317;52.186;5.688;2023-02-04T01:18:10;16.70;;;4.13;;
16416;SDS011;8317;52.186;5.688;2023-02-04T01:20:38;29.65;;;5.30;;
16416;SDS011;8317;52.186;5.688;2023-02-04T01:23:05;35.45;;;4.50;;
16416;SDS011;8317;52.186;5.688;2023-02-04T01:25:34;23.05;;;4.75;;
16416;SDS011;8317;52.186;5.688;2023-02-04T01:28:01;21.55;;;3.88;;
16416;SDS011;8317;52.186;5.688;2023-02-04T01:30:28;23.30;;;4.63;;
16416;SDS011;8317;52.186;5.688;2023-02-04T01:32:55;28.35;;;4.60;;
16416;SDS011;8317;52.186;5.688;2023-02-04T01:35:22;16.83;;;3.95;;
16416;SDS011;8317;52.186;5.688;2023-02-04T01:37:49;25.02;;;4.13;;
16416;SDS011;8317;52.186;5.688;2023-02-04T01:40:16;29.83;;;4.70;;
16416;SDS011;8317;52.186;5.688;2023-02-04T01:42:45;24.00;;;4.32;;
16416;SDS011;8317;52.186;5.688;2023-02-04T01:45:12;25.48;;;4.22;;
16416;SDS011;8317;52.186;5.688;2023-02-04T01:47:39;27.80;;;5.18;;
16416;SDS011;8317;52.186;5.688;2023-02-04T01:50:06;22.75;;;4.68;;
16416;SDS011;8317;52.186;5.688;2023-02-04T01:52:36;35.90;;;5.72;;
16416;SDS011;8317;52.186;5.688;2023-02-04T01:55:04;21.45;;;4.78;;
16416;SDS011;8317;52.186;5.688;2023-02-04T01:57:36;23.02;;;3.63;;
16416;SDS011;8317;52.186;5.688;2023-02-04T02:00:08;24.02;;;4.82;;
16416;SDS011;8317;52.186;5.688;2023-02-04T02:02:41;25.67;;;4.65;;
16416;SDS011;8317;52.186;5.688;2023-02-04T02:05:11;20.70;;;4.55;;
16416;SDS011;8317;52.186;5.688;2023-02-04T02:07:40;26.50;;;4.90;;
16416;SDS011;8317;52.186;5.688;2023-02-04T02:10:08;24.02;;;4.60;;
16416;SDS011;8317;52.186;5.688;2023-02-04T02:12:37;27.90;;;4.80;;
16416;SDS011;8317;52.186;5.688;2023-02-04T02:15:06;19.25;;;4.07;;
16416;SDS011;8317;52.186;5.688;2023-02-04T02:17:34;24.70;;;4.38;;
16416;SDS011;8317;52.186;5.688;2023-02-04T02:20:02;23.02;;;4.40;;
16416;SDS011;8317;52.186;5.688;2023-02-04T02:22:31;24.42;;;4.80;;
16416;SDS011;8317;52.186;5.688;2023-02-04T02:25:08;28.20;;;4.97;;
16416;SDS011;8317;52.186;5.688;2023-02-04T02:27:35;24.33;;;4.15;;
16416;SDS011;8317;52.186;5.688;2023-02-04T02:30:03;22.73;;;4.78;;
16416;SDS011;8317;52.186;5.688;2023-02-04T02:32:30;22.55;;;4.18;;
16416;SDS011;8317;52.186;5.688;2023-02-04T02:34:57;19.05;;;4.00;;
16416;SDS011;8317;52.186;5.688;2023-02-04T02:37:24;21.88;;;4.93;;
16416;SDS011;8317;52.186;5.688;2023-02-04T02:39:51;23.55;;;4.78;;
16416;SDS011;8317;52.186;5.688;2023-02-04T02:42:20;27.33;;;4.50;;
16416;SDS011;8317;52.186;5.688;2023-02-04T02:44:47;26.67;;;5.63;;
16416;SDS011;8317;52.186;5.688;2023-02-04T02:47:15;23.08;;;5.20;;
16416;SDS011;8317;52.186;5.688;2023-02-04T02:49:45;37.30;;;5.43;;
16416;SDS011;8317;52.186;5.688;2023-02-04T02:52:14;24.23;;;4.38;;
16416;SDS011;8317;52.186;5.688;2023-02-04T02:54:41;26.58;;;4.30;;
16416;SDS011;8317;52.186;5.688;2023-02-04T02:57:11;28.05;;;4.07;;
16416;SDS011;8317;52.186;5.688;2023-02-04T02:59:41;23.48;;;4.00;;
16416;SDS011;8317;52.186;5.688;2023-02-04T03:02:09;22.90;;;3.63;;
16416;SDS011;8317;52.186;5.688;2023-02-04T03:04:38;25.20;;;4.18;;
16416;SDS011;8317;52.186;5.688;2023-02-04T03:07:08;20.42;;;4.22;;
16416;SDS011;8317;52.186;5.688;2023-02-04T03:09:36;19.65;;;4.93;;
16416;SDS011;8317;52.186;5.688;2023-02-04T03:12:04;24.27;;;4.78;;
16416;SDS011;8317;52.186;5.688;2023-02-04T03:14:32;21.65;;;4.43;;
16416;SDS011;8317;52.186;5.688;2023-02-04T03:17:01;28.75;;;3.85;;
16416;SDS011;8317;52.186;5.688;2023-02-04T03:19:29;19.17;;;4.05;;
16416;SDS011;8317;52.186;5.688;2023-02-04T03:21:56;22.35;;;4.40;;
16416;SDS011;8317;52.186;5.688;2023-02-04T03:24:24;21.85;;;4.50;;
16416;SDS011;8317;52.186;5.688;2023-02-04T03:26:51;25.27;;;4.35;;
16416;SDS011;8317;52.186;5.688;2023-02-04T03:29:18;19.38;;;4.70;;
16416;SDS011;8317;52.186;5.688;2023-02-04T03:31:45;18.88;;;4.30;;
16416;SDS011;8317;52.186;5.688;2023-02-04T03:34:14;25.23;;;4.50;;
16416;SDS011;8317;52.186;5.688;2023-02-04T03:36:41;21.80;;;4.43;;
16416;SDS011;8317;52.186;5.688;2023-02-04T03:39:08;15.40;;;3.25;;
16416;SDS011;8317;52.186;5.688;2023-02-04T03:41:35;20.92;;;4.30;;
16416;SDS011;8317;52.186;5.688;2023-02-04T03:44:02;15.57;;;3.90;;
16416;SDS011;8317;52.186;5.688;2023-02-04T03:46:29;17.10;;;3.97;;
16416;SDS011;8317;52.186;5.688;2023-02-04T03:48:55;20.25;;;4.05;;
16416;SDS011;8317;52.186;5.688;2023-02-04T03:51:24;14.52;;;3.22;;
16416;SDS011;8317;52.186;5.688;2023-02-04T03:53:50;17.77;;;3.83;;
16416;SDS011;8317;52.186;5.688;2023-02-04T03:56:17;12.50;;;3.20;;
16416;SDS011;8317;52.186;5.688;2023-02-04T03:58:44;14.13;;;3.92;;
16416;SDS011;8317;52.186;5.688;2023-02-04T04:01:11;23.23;;;4.88;;
16416;SDS011;8317;52.186;5.688;2023-02-04T04:03:38;14.93;;;3.70;;
16416;SDS011;8317;52.186;5.688;2023-02-04T04:06:05;20.92;;;4.10;;
16416;SDS011;8317;52.186;5.688;2023-02-04T04:08:35;22.40;;;5.28;;
16416;SDS011;8317;52.186;5.688;2023-02-04T04:11:02;20.02;;;3.92;;
16416;SDS011;8317;52.186;5.688;2023-02-04T04:13:29;17.60;;;3.78;;
16416;SDS011;8317;52.186;5.688;2023-02-04T04:15:56;20.52;;;4.55;;
16416;SDS011;8317;52.186;5.688;2023-02-04T04:18:23;21.17;;;4.40;;
16416;SDS011;8317;52.186;5.688;2023-02-04T04:20:49;18.35;;;4.25;;
16416;SDS011;8317;52.186;5.688;2023-02-04T04:23:16;23.23;;;4.50;;
16416;SDS011;8317;52.186;5.688;2023-02-04T04:25:45;26.23;;;5.28;;
16416;SDS011;8317;52.186;5.688;2023-02-04T04:28:11;33.33;;;5.38;;
16416;SDS011;8317;52.186;5.688;2023-02-04T04:30:38;21.92;;;5.45;;
16416;SDS011;8317;52.186;5.688;2023-02-04T04:33:05;23.27;;;5.05;;
16416;SDS011;8317;52.186;5.688;2023-02-04T04:35:32;22.73;;;4.22;;
16416;SDS011;8317;52.186;5.688;2023-02-04T04:37:59;20.92;;;4.55;;
16416;SDS011;8317;52.186;5.688;2023-02-04T04:40:26;19.40;;;4.90;;
16416;SDS011;8317;52.186;5.688;2023-02-04T04:42:54;19.25;;;4.75;;
16416;SDS011;8317;52.186;5.688;2023-02-04T04:45:21;22.42;;;4.43;;
16416;SDS011;8317;52.186;5.688;2023-02-04T04:47:48;26.40;;;4.07;;
16416;SDS011;8317;52.186;5.688;2023-02-04T04:50:15;19.33;;;4.50;;
16416;SDS011;8317;52.186;5.688;2023-02-04T04:52:42;25.42;;;4.53;;
16416;SDS011;8317;52.186;5.688;2023-02-04T04:55:09;23.27;;;4.90;;
16416;SDS011;8317;52.186;5.688;2023-02-04T04:57:36;22.60;;;4.97;;
16416;SDS011;8317;52.186;5.688;2023-02-04T05:00:06;22.55;;;5.55;;
16416;SDS011;8317;52.186;5.688;2023-02-04T05:02:34;21.88;;;4.38;;
16416;SDS011;8317;52.186;5.688;2023-02-04T05:05:01;22.53;;;4.20;;
16416;SDS011;8317;52.186;5.688;2023-02-04T05:07:28;19.98;;;4.25;;
16416;SDS011;8317;52.186;5.688;2023-02-04T05:09:55;13.52;;;4.13;;
16416;SDS011;8317;52.186;5.688;2023-02-04T05:12:21;24.27;;;7.05;;
16416;SDS011;8317;52.186;5.688;2023-02-04T05:14:48;27.90;;;11.32;;
16416;SDS011;8317;52.186;5.688;2023-02-04T05:17:17;19.98;;;4.78;;
16416;SDS011;8317;52.186;5.688;2023-02-04T05:19:43;20.50;;;3.72;;
16416;SDS011;8317;52.186;5.688;2023-02-04T05:22:10;13.18;;;3.38;;
16416;SDS011;8317;52.186;5.688;2023-02-04T05:24:37;18.65;;;3.70;;
16416;SDS011;8317;52.186;5.688;2023-02-04T05:27:04;23.55;;;4.15;;
16416;SDS011;8317;52.186;5.688;2023-02-04T05:29:31;19.58;;;3.83;;
16416;SDS011;8317;52.186;5.688;2023-02-04T05:31:58;16.50;;;3.50;;
16416;SDS011;8317;52.186;5.688;2023-02-04T05:34:26;12.38;;;2.92;;
16416;SDS011;8317;52.186;5.688;2023-02-04T05:36:53;19.23;;;3.27;;
16416;SDS011;8317;52.186;5.688;2023-02-04T05:39:20;15.18;;;2.60;;
16416;SDS011;8317;52.186;5.688;2023-02-04T05:41:47;10.35;;;3.17;;
16416;SDS011;8317;52.186;5.688;2023-02-04T05:44:14;18.07;;;3.60;;
16416;SDS011;8317;52.186;5.688;2023-02-04T05:46:40;19.08;;;3.85;;
16416;SDS011;8317;52.186;5.688;2023-02-04T05:49:07;17.20;;;4.50;;
16416;SDS011;8317;52.186;5.688;2023-02-04T05:51:36;15.85;;;4.72;;
16416;SDS011;8317;52.186;5.688;2023-02-04T05:54:03;19.13;;;6.33;;
16416;SDS011;8317;52.186;5.688;2023-02-04T05:56:30;22.17;;;6.43;;
16416;SDS011;8317;52.186;5.688;2023-02-04T05:58:56;22.70;;;6.30;;
16416;SDS011;8317;52.186;5.688;2023-02-04T06:01:23;19.48;;;6.05;;
16416;SDS011;8317;52.186;5.688;2023-02-04T06:03:50;19.42;;;5.60;;
16416;SDS011;8317;52.186;5.688;2023-02-04T06:06:17;15.37;;;4.43;;
16416;SDS011;8317;52.186;5.688;2023-02-04T06:08:45;20.85;;;3.83;;
16416;SDS011;8317;52.186;5.688;2023-02-04T06:11:12;16.77;;;4.25;;
16416;SDS011;8317;52.186;5.688;2023-02-04T06:13:39;16.30;;;3.40;;
16416;SDS011;8317;52.186;5.688;2023-02-04T06:16:06;19.47;;;3.73;;
16416;SDS011;8317;52.186;5.688;2023-02-04T06:18:33;13.75;;;3.90;;
16416;SDS011;8317;52.186;5.688;2023-02-04T06:21:00;15.80;;;3.77;;
16416;SDS011;8317;52.186;5.688;2023-02-04T06:23:29;23.20;;;3.53;;
16416;SDS011;8317;52.186;5.688;2023-02-04T06:25:57;15.05;;;3.47;;
16416;SDS011;8317;52.186;5.688;2023-02-04T06:28:24;14.02;;;3.83;;
16416;SDS011;8317;52.186;5.688;2023-02-04T06:30:51;13.10;;;4.22;;
16416;SDS011;8317;52.186;5.688;2023-02-04T06:33:18;10.57;;;3.17;;
16416;SDS011;8317;52.186;5.688;2023-02-04T06:35:45;13.80;;;3.60;;
16416;SDS011;8317;52.186;5.688;2023-02-04T06:38:12;15.32;;;3.88;;
16416;SDS011;8317;52.186;5.688;2023-02-04T06:40:39;20.97;;;4.00;;
16416;SDS011;8317;52.186;5.688;2023-02-04T06:43:07;20.45;;;4.93;;
16416;SDS011;8317;52.186;5.688;2023-02-04T06:45:34;28.77;;;7.60;;
16416;SDS011;8317;52.186;5.688;2023-02-04T06:48:01;16.10;;;5.03;;
16416;SDS011;8317;52.186;5.688;2023-02-04T06:50:28;26.50;;;6.97;;
16416;SDS011;8317;52.186;5.688;2023-02-04T06:52:55;20.27;;;6.45;;
16416;SDS011;8317;52.186;5.688;2023-02-04T06:55:22;20.83;;;5.10;;
16416;SDS011;8317;52.186;5.688;2023-02-04T06:57:49;19.85;;;4.50;;
16416;SDS011;8317;52.186;5.688;2023-02-04T07:00:17;19.75;;;4.95;;
16416;SDS011;8317;52.186;5.688;2023-02-04T07:02:45;17.10;;;4.17;;
16416;SDS011;8317;52.186;5.688;2023-02-04T07:05:12;21.93;;;5.10;;
16416;SDS011;8317;52.186;5.688;2023-02-04T07:07:39;23.40;;;4.77;;
16416;SDS011;8317;52.186;5.688;2023-02-04T07:10:06;18.27;;;4.40;;
16416;SDS011;8317;52.186;5.688;2023-02-04T07:12:33;25.13;;;4.80;;
16416;SDS011;8317;52.186;5.688;2023-02-04T07:15:00;15.93;;;4.20;;
16416;SDS011;8317;52.186;5.688;2023-02-04T07:17:28;20.23;;;4.73;;
16416;SDS011;8317;52.186;5.688;2023-02-04T07:19:55;18.13;;;4.43;;
16416;SDS011;8317;52.186;5.688;2023-02-04T07:22:22;20.20;;;4.95;;
16416;SDS011;8317;52.186;5.688;2023-02-04T07:24:49;20.17;;;4.60;;
16416;SDS011;8317;52.186;5.688;2023-02-04T07:27:16;25.63;;;4.93;;
16416;SDS011;8317;52.186;5.688;2023-02-04T07:29:42;18.50;;;4.63;;
16416;SDS011;8317;52.186;5.688;2023-02-04T07:32:09;21.58;;;5.22;;
16416;SDS011;8317;52.186;5.688;2023-02-04T07:34:38;35.00;;;5.75;;
16416;SDS011;8317;52.186;5.688;2023-02-04T07:37:04;19.10;;;4.90;;
16416;SDS011;8317;52.186;5.688;2023-02-04T07:39:31;22.98;;;4.68;;
16416;SDS011;8317;52.186;5.688;2023-02-04T07:41:58;33.05;;;5.68;;
16416;SDS011;8317;52.186;5.688;2023-02-04T07:44:25;14.98;;;4.32;;
16416;SDS011;8317;52.186;5.688;2023-02-04T07:46:52;13.10;;;3.90;;
16416;SDS011;8317;52.186;5.688;2023-02-04T07:49:19;20.33;;;5.05;;
16416;SDS011;8317;52.186;5.688;2023-02-04T07:51:47;16.52;;;4.38;;
16416;SDS011;8317;52.186;5.688;2023-02-04T07:54:14;23.60;;;4.55;;
16416;SDS011;8317;52.186;5.688;2023-02-04T07:56:41;19.85;;;4.82;;
16416;SDS011;8317;52.186;5.688;2023-02-04T07:59:08;22.52;;;5.65;;
16416;SDS011;8317;52.186;5.688;2023-02-04T08:01:34;25.70;;;5.65;;
16416;SDS011;8317;52.186;5.688;2023-02-04T08:04:01;20.67;;;4.70;;
16416;SDS011;8317;52.186;5.688;2023-02-04T08:06:28;19.73;;;5.20;;
16416;SDS011;8317;52.186;5.688;2023-02-04T08:08:57;19.33;;;4.75;;
16416;SDS011;8317;52.186;5.688;2023-02-04T08:11:24;19.17;;;5.18;;
16416;SDS011;8317;52.186;5.688;2023-02-04T08:13:51;23.40;;;5.72;;
16416;SDS011;8317;52.186;5.688;2023-02-04T08:16:18;33.35;;;13.32;;
16416;SDS011;8317;52.186;5.688;2023-02-04T08:18:45;36.58;;;9.30;;
16416;SDS011;8317;52.186;5.688;2023-02-04T08:21:12;22.55;;;7.20;;
16416;SDS011;8317;52.186;5.688;2023-02-04T08:23:38;27.75;;;9.38;;
16416;SDS011;8317;52.186;5.688;2023-02-04T08:26:08;33.78;;;9.50;;
16416;SDS011;8317;52.186;5.688;2023-02-04T08:28:36;27.10;;;8.40;;
16416;SDS011;8317;52.186;5.688;2023-02-04T08:31:03;33.03;;;10.00;;
16416;SDS011;8317;52.186;5.688;2023-02-04T08:33:30;44.28;;;15.75;;
16416;SDS011;8317;52.186;5.688;2023-02-04T08:35:58;38.20;;;13.50;;
16416;SDS011;8317;52.186;5.688;2023-02-04T08:38:25;76.15;;;39.80;;
16416;SDS011;8317;52.186;5.688;2023-02-04T08:40:52;32.58;;;11.38;;
16416;SDS011;8317;52.186;5.688;2023-02-04T08:43:20;33.22;;;8.40;;
16416;SDS011;8317;52.186;5.688;2023-02-04T08:45:47;27.20;;;6.22;;
16416;SDS011;8317;52.186;5.688;2023-02-04T08:48:14;31.08;;;7.82;;
16416;SDS011;8317;52.186;5.688;2023-02-04T08:50:40;27.63;;;8.70;;
16416;SDS011;8317;52.186;5.688;2023-02-04T08:53:07;35.70;;;8.65;;
16416;SDS011;8317;52.186;5.688;2023-02-04T08:55:34;21.95;;;6.82;;
16416;SDS011;8317;52.186;5.688;2023-02-04T08:58:01;41.92;;;8.48;;
16416;SDS011;8317;52.186;5.688;2023-02-04T09:00:29;27.83;;;7.13;;
16416;SDS011;8317;52.186;5.688;2023-02-04T09:02:57;25.67;;;6.70;;
16416;SDS011;8317;52.186;5.688;2023-02-04T09:05:24;29.17;;;7.28;;
16416;SDS011;8317;52.186;5.688;2023-02-04T09:07:51;28.48;;;6.53;;
16416;SDS011;8317;52.186;5.688;2023-02-04T09:10:18;31.85;;;7.00;;
16416;SDS011;8317;52.186;5.688;2023-02-04T09:12:45;32.25;;;6.32;;
16416;SDS011;8317;52.186;5.688;2023-02-04T09:15:12;28.45;;;6.53;;
16416;SDS011;8317;52.186;5.688;2023-02-04T09:17:40;26.95;;;6.88;;
16416;SDS011;8317;52.186;5.688;2023-02-04T09:20:08;55.88;;;25.15;;
16416;SDS011;8317;52.186;5.688;2023-02-04T09:22:36;61.03;;;27.40;;
16416;SDS011;8317;52.186;5.688;2023-02-04T09:25:03;75.50;;;36.63;;
16416;SDS011;8317;52.186;5.688;2023-02-04T09:27:30;29.27;;;11.55;;
16416;SDS011;8317;52.186;5.688;2023-02-04T09:29:57;33.45;;;11.88;;
16416;SDS011;8317;52.186;5.688;2023-02-04T09:32:24;43.10;;;14.30;;
16416;SDS011;8317;52.186;5.688;2023-02-04T09:34:53;28.00;;;8.02;;
16416;SDS011;8317;52.186;5.688;2023-02-04T09:37:20;27.48;;;8.10;;
16416;SDS011;8317;52.186;5.688;2023-02-04T09:39:48;30.83;;;10.57;;
16416;SDS011;8317;52.186;5.688;2023-02-04T09:42:15;29.48;;;8.80;;
16416;SDS011;8317;52.186;5.688;2023-02-04T09:44:42;35.92;;;8.68;;
16416;SDS011;8317;52.186;5.688;2023-02-04T09:47:10;26.67;;;6.53;;
16416;SDS011;8317;52.186;5.688;2023-02-04T09:49:39;34.78;;;6.38;;
16416;SDS011;8317;52.186;5.688;2023-02-04T09:52:10;26.25;;;8.15;;
16416;SDS011;8317;52.186;5.688;2023-02-04T09:54:39;46.20;;;11.52;;
16416;SDS011;8317;52.186;5.688;2023-02-04T09:57:08;33.60;;;7.97;;
16416;SDS011;8317;52.186;5.688;2023-02-04T09:59:40;35.70;;;9.07;;
16416;SDS011;8317;52.186;5.688;2023-02-04T10:02:13;28.08;;;6.82;;
16416;SDS011;8317;52.186;5.688;2023-02-04T10:04:48;28.83;;;7.93;;
16416;SDS011;8317;52.186;5.688;2023-02-04T10:07:19;37.63;;;6.93;;
16416;SDS011;8317;52.186;5.688;2023-02-04T10:09:49;31.55;;;6.55;;
16416;SDS011;8317;52.186;5.688;2023-02-04T10:12:17;27.35;;;5.95;;
16416;SDS011;8317;52.186;5.688;2023-02-04T10:14:44;38.60;;;6.00;;
16416;SDS011;8317;52.186;5.688;2023-02-04T10:17:11;28.85;;;5.97;;
16416;SDS011;8317;52.186;5.688;2023-02-04T10:19:45;33.40;;;5.90;;
16416;SDS011;8317;52.186;5.688;2023-02-04T10:22:14;31.13;;;6.28;;
16416;SDS011;8317;52.186;5.688;2023-02-04T10:24:44;39.72;;;6.40;;
16416;SDS011;8317;52.186;5.688;2023-02-04T10:27:12;30.02;;;5.97;;
16416;SDS011;8317;52.186;5.688;2023-02-04T10:29:41;43.78;;;6.03;;
16416;SDS011;8317;52.186;5.688;2023-02-04T10:32:28;30.83;;;6.25;;
16416;SDS011;8317;52.186;5.688;2023-02-04T10:34:57;37.53;;;7.15;;
16416;SDS011;8317;52.186;5.688;2023-02-04T10:37:25;30.23;;;6.25;;
16416;SDS011;8317;52.186;5.688;2023-02-04T10:39:55;21.95;;;6.03;;
16416;SDS011;8317;52.186;5.688;2023-02-04T10:42:22;30.05;;;6.10;;
16416;SDS011;8317;52.186;5.688;2023-02-04T10:44:51;29.80;;;5.88;;
16416;SDS011;8317;52.186;5.688;2023-02-04T10:47:19;33.83;;;6.57;;
16416;SDS011;8317;52.186;5.688;2023-02-04T10:49:51;33.20;;;6.47;;
16416;SDS011;8317;52.186;5.688;2023-02-04T10:52:20;26.05;;;5.30;;
16416;SDS011;8317;52.186;5.688;2023-02-04T10:54:49;28.38;;;5.47;;
16416;SDS011;8317;52.186;5.688;2023-02-04T10:57:18;28.58;;;5.65;;
16416;SDS011;8317;52.186;5.688;2023-02-04T10:59:48;29.15;;;5.22;;
16416;SDS011;8317;52.186;5.688;2023-02-04T11:05:03;35.22;;;6.20;;
16416;SDS011;8317;52.186;5.688;2023-02-04T11:07:35;32.58;;;5.90;;
16416;SDS011;8317;52.186;5.688;2023-02-04T11:10:02;24.45;;;5.45;;
16416;SDS011;8317;52.186;5.688;2023-02-04T11:12:39;23.80;;;5.60;;
16416;SDS011;8317;52.186;5.688;2023-02-04T11:18:02;29.52;;;6.00;;
16416;SDS011;8317;52.186;5.688;2023-02-04T11:20:31;28.35;;;5.30;;
16416;SDS011;8317;52.186;5.688;2023-02-04T11:23:12;28.58;;;5.55;;
16416;SDS011;8317;52.186;5.688;2023-02-04T11:26:00;20.10;;;4.80;;
16416;SDS011;8317;52.186;5.688;2023-02-04T11:28:43;22.00;;;4.95;;
16416;SDS011;8317;52.186;5.688;2023-02-04T11:31:12;18.83;;;4.82;;
16416;SDS011;8317;52.186;5.688;2023-02-04T11:34:01;20.33;;;4.75;;
16416;SDS011;8317;52.186;5.688;2023-02-04T11:36:33;29.20;;;4.80;;
16416;SDS011;8317;52.186;5.688;2023-02-04T11:39:05;19.52;;;4.57;;
16416;SDS011;8317;52.186;5.688;2023-02-04T11:41:42;26.30;;;5.65;;
16416;SDS011;8317;52.186;5.688;2023-02-04T11:44:12;27.80;;;5.10;;
16416;SDS011;8317;52.186;5.688;2023-02-04T11:46:40;19.40;;;4.63;;
16416;SDS011;8317;52.186;5.688;2023-02-04T11:49:08;23.45;;;5.93;;
16416;SDS011;8317;52.186;5.688;2023-02-04T11:51:41;22.45;;;4.93;;
16416;SDS011;8317;52.186;5.688;2023-02-04T11:54:10;20.60;;;5.00;;
16416;SDS011;8317;52.186;5.688;2023-02-04T11:56:38;22.92;;;4.47;;
16416;SDS011;8317;52.186;5.688;2023-02-04T11:59:05;20.88;;;4.78;;
16416;SDS011;8317;52.186;5.688;2023-02-04T12:01:38;19.15;;;4.07;;
16416;SDS011;8317;52.186;5.688;2023-02-04T12:04:06;24.08;;;4.40;;
16416;SDS011;8317;52.186;5.688;2023-02-04T12:06:55;29.35;;;4.63;;
16416;SDS011;8317;52.186;5.688;2023-02-04T12:09:23;26.05;;;3.95;;
16416;SDS011;8317;52.186;5.688;2023-02-04T12:11:54;21.27;;;4.18;;
16416;SDS011;8317;52.186;5.688;2023-02-04T12:14:26;27.50;;;4.45;;
16416;SDS011;8317;52.186;5.688;2023-02-04T12:16:55;24.17;;;4.40;;
16416;SDS011;8317;52.186;5.688;2023-02-04T12:19:22;22.17;;;4.55;;
16416;SDS011;8317;52.186;5.688;2023-02-04T12:21:52;28.58;;;4.93;;
16416;SDS011;8317;52.186;5.688;2023-02-04T12:24:20;23.52;;;4.97;;
16416;SDS011;8317;52.186;5.688;2023-02-04T12:26:46;18.55;;;3.75;;
16416;SDS011;8317;52.186;5.688;2023-02-04T12:29:13;16.10;;;3.80;;
16416;SDS011;8317;52.186;5.688;2023-02-04T12:31:40;20.90;;;4.88;;
16416;SDS011;8317;52.186;5.688;2023-02-04T12:34:08;16.42;;;3.80;;
16416;SDS011;8317;52.186;5.688;2023-02-04T12:36:35;19.25;;;4.18;;
16416;SDS011;8317;52.186;5.688;2023-02-04T12:39:02;24.73;;;5.05;;
16416;SDS011;8317;52.186;5.688;2023-02-04T12:41:29;18.10;;;3.88;;
16416;SDS011;8317;52.186;5.688;2023-02-04T12:43:56;20.23;;;4.55;;
16416;SDS011;8317;52.186;5.688;2023-02-04T12:46:25;16.85;;;3.90;;
16416;SDS011;8317;52.186;5.688;2023-02-04T12:48:52;21.35;;;4.75;;
16416;SDS011;8317;52.186;5.688;2023-02-04T12:51:20;25.80;;;4.82;;
16416;SDS011;8317;52.186;5.688;2023-02-04T12:53:47;20.48;;;4.93;;
16416;SDS011;8317;52.186;5.688;2023-02-04T12:56:14;18.67;;;4.07;;
16416;SDS011;8317;52.186;5.688;2023-02-04T12:58:44;16.02;;;3.63;;
16416;SDS011;8317;52.186;5.688;2023-02-04T13:01:11;25.05;;;4.55;;
16416;SDS011;8317;52.186;5.688;2023-02-04T13:03:38;19.33;;;4.30;;
16416;SDS011;8317;52.186;5.688;2023-02-04T13:06:05;25.27;;;5.15;;
16416;SDS011;8317;52.186;5.688;2023-02-04T13:08:33;25.33;;;5.15;;
16416;SDS011;8317;52.186;5.688;2023-02-04T13:11:00;27.92;;;4.70;;
16416;SDS011;8317;52.186;5.688;2023-02-04T13:13:27;24.13;;;4.63;;
16416;SDS011;8317;52.186;5.688;2023-02-04T13:15:54;21.70;;;4.25;;
16416;SDS011;8317;52.186;5.688;2023-02-04T13:18:21;19.55;;;4.60;;
16416;SDS011;8317;52.186;5.688;2023-02-04T13:20:48;18.35;;;4.07;;
16416;SDS011;8317;52.186;5.688;2023-02-04T13:23:15;21.65;;;4.53;;
16416;SDS011;8317;52.186;5.688;2023-02-04T13:25:43;22.75;;;3.75;;
16416;SDS011;8317;52.186;5.688;2023-02-04T13:28:10;14.75;;;3.78;;
16416;SDS011;8317;52.186;5.688;2023-02-04T13:30:37;24.90;;;3.97;;
16416;SDS011;8317;52.186;5.688;2023-02-04T13:33:04;16.45;;;4.63;;
16416;SDS011;8317;52.186;5.688;2023-02-04T13:35:31;14.98;;;3.33;;
16416;SDS011;8317;52.186;5.688;2023-02-04T13:37:58;22.08;;;4.25;;
16416;SDS011;8317;52.186;5.688;2023-02-04T13:40:25;16.30;;;3.90;;
16416;SDS011;8317;52.186;5.688;2023-02-04T13:42:53;14.27;;;3.03;;
16416;SDS011;8317;52.186;5.688;2023-02-04T13:45:20;20.10;;;3.15;;
16416;SDS011;8317;52.186;5.688;2023-02-04T13:47:47;17.65;;;4.28;;
16416;SDS011;8317;52.186;5.688;2023-02-04T13:50:16;15.60;;;3.72;;
16416;SDS011;8317;52.186;5.688;2023-02-04T13:52:43;14.40;;;3.28;;
16416;SDS011;8317;52.186;5.688;2023-02-04T13:55:10;21.77;;;3.78;;
16416;SDS011;8317;52.186;5.688;2023-02-04T13:57:37;16.13;;;3.22;;
16416;SDS011;8317;52.186;5.688;2023-02-04T14:00:06;16.65;;;3.15;;
16416;SDS011;8317;52.186;5.688;2023-02-04T14:02:34;15.25;;;3.45;;
16416;SDS011;8317;52.186;5.688;2023-02-04T14:05:01;13.80;;;3.20;;
16416;SDS011;8317;52.186;5.688;2023-02-04T14:07:27;15.48;;;3.47;;
16416;SDS011;8317;52.186;5.688;2023-02-04T14:09:54;18.75;;;4.07;;
16416;SDS011;8317;52.186;5.688;2023-02-04T14:12:21;18.75;;;3.63;;
16416;SDS011;8317;52.186;5.688;2023-02-04T14:14:48;19.15;;;3.67;;
16416;SDS011;8317;52.186;5.688;2023-02-04T14:17:17;17.27;;;3.58;;
16416;SDS011;8317;52.186;5.688;2023-02-04T14:19:43;19.10;;;3.78;;
16416;SDS011;8317;52.186;5.688;2023-02-04T14:22:10;18.48;;;4.32;;
16416;SDS011;8317;52.186;5.688;2023-02-04T14:24:37;23.52;;;4.78;;
16416;SDS011;8317;52.186;5.688;2023-02-04T14:27:06;24.63;;;4.28;;
16416;SDS011;8317;52.186;5.688;2023-02-04T14:29:34;18.17;;;3.85;;
16416;SDS011;8317;52.186;5.688;2023-02-04T14:32:01;19.45;;;4.28;;
16416;SDS011;8317;52.186;5.688;2023-02-04T14:34:29;18.77;;;4.43;;
16416;SDS011;8317;52.186;5.688;2023-02-04T14:36:56;24.20;;;4.50;;
16416;SDS011;8317;52.186;5.688;2023-02-04T14:39:23;16.48;;;4.18;;
16416;SDS011;8317;52.186;5.688;2023-02-04T14:41:50;19.00;;;4.13;;
16416;SDS011;8317;52.186;5.688;2023-02-04T14:44:17;24.08;;;5.47;;
16416;SDS011;8317;52.186;5.688;2023-02-04T14:46:44;20.73;;;5.00;;
16416;SDS011;8317;52.186;5.688;2023-02-04T14:49:12;16.10;;;3.35;;
16416;SDS011;8317;52.186;5.688;2023-02-04T14:51:41;15.73;;;3.80;;
16416;SDS011;8317;52.186;5.688;2023-02-04T14:54:08;18.80;;;3.78;;
16416;SDS011;8317;52.186;5.688;2023-02-04T14:56:35;13.02;;;3.13;;
16416;SDS011;8317;52.186;5.688;2023-02-04T14:59:02;19.48;;;4.15;;